Time;durP1;ratioP1;P1;durP2;ratioP2;P2;SDS_P1;SDS_P2;PMS_P1;PMS_P2;Temp;Humidity;BMP_temperature;BMP_pressure;BME280_temperature;BME280_humidity;BME280_pressure;Samples;Min_cycle;Max_cycle;Signal;HPM_P1;HPM_P2
2022/07/08 00:00:52;;;;;;;1.22;1.00;;;;;;;17.93;100.00;98492.95;1721725;81;28113;-84
2022/07/08 00:03:18;;;;;;;1.42;1.20;;;;;;;17.88;100.00;98493.91;1714248;81;28130;-85
2022/07/08 00:05:47;;;;;;;2.47;1.10;;;;;;;17.82;100.00;98499.31;1659701;84;28010;-85
2022/07/08 00:08:13;;;;;;;2.17;1.20;;;;;;;17.79;100.00;98496.95;1716597;81;28087;-85
2022/07/08 00:10:40;;;;;;;1.55;1.20;;;;;;;17.73;100.00;98494.09;1721896;81;28065;-85
2022/07/08 00:13:07;;;;;;;3.17;1.20;;;;;;;17.68;100.00;98495.84;1705112;81;28120;-85
2022/07/08 00:15:33;;;;;;;2.65;1.20;;;;;;;17.65;100.00;98490.87;1719371;82;28155;-85
2022/07/08 00:17:59;;;;;;;2.20;1.20;;;;;;;17.63;100.00;98493.30;1713398;81;28156;-84
2022/07/08 00:20:25;;;;;;;2.55;1.27;;;;;;;17.60;100.00;98493.13;1722074;82;28198;-84
2022/07/08 00:22:57;;;;;;;3.67;1.45;;;;;;;17.57;100.00;98492.89;1699337;82;42240;-84
2022/07/08 00:25:23;;;;;;;1.05;1.05;;;;;;;17.55;100.00;98490.08;1722860;82;28157;-84
2022/07/08 00:27:51;;;;;;;4.17;1.22;;;;;;;17.51;100.00;98494.01;1716553;81;28113;-84
2022/07/08 00:30:17;;;;;;;2.58;0.98;;;;;;;17.49;100.00;98496.80;1721399;82;28082;-85
2022/07/08 00:32:50;;;;;;;2.10;1.30;;;;;;;17.51;100.00;98497.98;1720844;81;28136;-84
2022/07/08 00:35:16;;;;;;;3.95;1.50;;;;;;;17.51;100.00;98499.30;1722551;81;28125;-85
2022/07/08 00:37:48;;;;;;;2.45;1.67;;;;;;;17.51;100.00;98504.59;1721919;81;28439;-85
2022/07/08 00:40:14;;;;;;;2.95;1.30;;;;;;;17.48;100.00;98508.84;1722546;82;28154;-85
2022/07/08 00:42:40;;;;;;;1.92;1.70;;;;;;;17.46;100.00;98507.66;1726555;81;28110;-85
2022/07/08 00:45:08;;;;;;;1.90;1.40;;;;;;;17.42;100.00;98504.97;1722688;81;28129;-85
2022/07/08 00:47:40;;;;;;;3.05;1.20;;;;;;;17.41;100.00;98499.82;1724647;81;28094;-85
2022/07/08 00:50:08;;;;;;;1.57;1.20;;;;;;;17.43;100.00;98497.88;1726075;82;28155;-85
2022/07/08 00:52:40;;;;;;;1.70;1.10;;;;;;;17.47;100.00;98504.52;1716599;82;28076;-84
2022/07/08 00:55:09;;;;;;;1.02;0.90;;;;;;;17.48;100.00;98503.55;1718906;82;28189;-85
2022/07/08 00:57:39;;;;;;;1.90;1.12;;;;;;;17.42;100.00;98504.14;1721664;82;28030;-85
2022/07/08 01:00:06;;;;;;;2.08;1.10;;;;;;;17.43;100.00;98500.52;1716551;82;28095;-85
2022/07/08 01:02:33;;;;;;;1.67;1.20;;;;;;;17.45;100.00;98509.98;1724623;82;28092;-84
2022/07/08 01:05:01;;;;;;;3.65;1.45;;;;;;;17.47;100.00;98506.68;1716039;82;28067;-84
2022/07/08 01:07:27;;;;;;;3.08;1.20;;;;;;;17.49;100.00;98508.70;1723098;81;28094;-84
2022/07/08 01:09:53;;;;;;;3.15;1.40;;;;;;;17.50;100.00;98509.53;1709701;81;28159;-84
2022/07/08 01:12:20;;;;;;;2.33;1.30;;;;;;;17.51;100.00;98508.05;1688106;83;28135;-84
2022/07/08 01:14:46;;;;;;;1.67;1.15;;;;;;;17.53;100.00;98509.22;1685682;82;28092;-84
2022/07/08 01:17:13;;;;;;;2.80;1.42;;;;;;;17.54;100.00;98510.89;1682978;84;28081;-84
2022/07/08 01:19:44;;;;;;;2.65;1.12;;;;;;;17.56;100.00;98509.75;1692930;82;28123;-84
2022/07/08 01:22:16;;;;;;;2.42;1.30;;;;;;;17.58;100.00;98512.25;1685482;84;28198;-84
2022/07/08 01:24:42;;;;;;;3.22;1.15;;;;;;;17.61;100.00;98513.81;1688131;84;28164;-85
2022/07/08 01:27:15;;;;;;;2.90;1.42;;;;;;;17.60;100.00;98512.98;1685105;82;28130;-84
2022/07/08 01:29:41;;;;;;;1.52;1.42;;;;;;;17.60;100.00;98512.14;1683571;83;28092;-84
2022/07/08 01:32:08;;;;;;;1.92;1.45;;;;;;;17.54;100.00;98515.70;1684182;84;28109;-85
2022/07/08 01:34:34;;;;;;;2.17;1.40;;;;;;;17.53;100.00;98510.55;1689196;84;28052;-85
2022/07/08 01:37:02;;;;;;;1.75;1.42;;;;;;;17.53;100.00;98514.03;1687142;83;28116;-84
2022/07/08 01:39:30;;;;;;;1.55;1.30;;;;;;;17.53;100.00;98514.52;1692646;84;28064;-85
2022/07/08 01:42:03;;;;;;;3.33;1.30;;;;;;;17.49;100.00;98514.48;1688160;82;28163;-85
2022/07/08 01:44:29;;;;;;;1.57;1.22;;;;;;;17.47;100.00;98513.30;1685851;84;28108;-85
2022/07/08 01:46:55;;;;;;;4.25;1.45;;;;;;;17.49;100.00;98511.84;1685053;83;28112;-85
2022/07/08 01:49:27;;;;;;;2.83;1.50;;;;;;;17.50;100.00;98516.15;1682362;84;28028;-85
2022/07/08 01:51:57;;;;;;;2.33;1.37;;;;;;;17.50;100.00;98513.02;1687682;83;28194;-85
2022/07/08 01:54:23;;;;;;;2.58;1.52;;;;;;;17.51;100.00;98513.85;1685033;83;28234;-84
2022/07/08 01:57:13;;;;;;;2.42;1.27;;;;;;;17.50;100.00;98518.80;1685449;82;28119;-85
2022/07/08 01:59:22;;;;;;;4.58;1.60;;;;;;;17.50;100.00;98523.60;1683637;84;28097;-84
2022/07/08 02:01:48;;;;;;;3.92;1.60;;;;;;;17.50;100.00;98528.06;1683324;82;28147;-85
2022/07/08 02:04:15;;;;;;;3.80;1.30;;;;;;;17.51;100.00;98529.21;1689235;83;28062;-85
2022/07/08 02:06:42;;;;;;;1.75;1.47;;;;;;;17.51;100.00;98531.05;1681067;84;28032;-85
2022/07/08 02:09:08;;;;;;;2.60;1.30;;;;;;;17.50;100.00;98534.67;1695815;82;28085;-84
2022/07/08 02:14:18;;;;;;;3.05;1.60;;;;;;;17.51;100.00;98545.09;1707347;82;28080;-84
2022/07/08 02:16:45;;;;;;;2.40;1.40;;;;;;;17.51;100.00;98538.99;1704212;82;28179;-84
2022/07/08 02:19:11;;;;;;;1.62;1.40;;;;;;;17.52;100.00;98541.47;1708502;82;28111;-85
2022/07/08 02:21:42;;;;;;;3.55;1.50;;;;;;;17.49;100.00;98547.06;1717619;82;28101;-85
2022/07/08 02:24:07;;;;;;;3.98;1.50;;;;;;;17.48;100.00;98545.88;1709555;82;28029;-85
2022/07/08 02:26:40;;;;;;;1.72;1.42;;;;;;;17.49;100.00;98548.39;1706576;82;28092;-85
2022/07/08 02:29:07;;;;;;;4.47;1.32;;;;;;;17.50;100.00;98545.26;1715442;82;28182;-85
2022/07/08 02:31:34;;;;;;;1.65;1.52;;;;;;;17.52;100.00;98551.22;1716078;82;28073;-85
2022/07/08 02:34:01;;;;;;;1.82;1.47;;;;;;;17.52;100.00;98553.86;1716624;82;28083;-85
2022/07/08 02:36:28;;;;;;;3.05;1.47;;;;;;;17.51;100.00;98555.67;1706261;82;28100;-85
2022/07/08 02:38:54;;;;;;;2.00;1.70;;;;;;;17.50;100.00;98555.84;1712202;82;28116;-84
2022/07/08 02:41:20;;;;;;;3.22;1.55;;;;;;;17.44;100.00;98559.08;1713314;82;28084;-83
2022/07/08 02:43:50;;;;;;;4.60;1.60;;;;;;;17.43;100.00;98560.05;1711094;82;28169;-84
2022/07/08 02:46:16;;;;;;;3.37;1.50;;;;;;;17.39;100.00;98559.52;1711229;82;28079;-84
2022/07/08 02:48:42;;;;;;;2.95;1.30;;;;;;;17.39;100.00;98563.48;1715593;82;28035;-85
2022/07/08 02:51:08;;;;;;;2.00;1.80;;;;;;;17.38;100.00;98563.62;1702927;82;28264;-85
2022/07/08 02:53:41;;;;;;;2.52;1.80;;;;;;;17.34;100.00;98575.48;1714313;82;28139;-84
2022/07/08 02:56:07;;;;;;;1.87;1.60;;;;;;;17.31;100.00;98577.09;1711596;82;28119;-84
2022/07/08 02:58:33;;;;;;;1.72;1.62;;;;;;;17.29;100.00;98579.87;1718089;82;28092;-84
2022/07/08 03:01:02;;;;;;;1.22;1.12;;;;;;;17.28;100.00;98576.91;1712453;82;28159;-84
2022/07/08 03:03:34;;;;;;;2.12;1.55;;;;;;;17.27;100.00;98572.59;1715695;82;28150;-84
2022/07/08 03:06:06;;;;;;;1.40;1.20;;;;;;;17.29;100.00;98575.09;1701985;82;28157;-84
2022/07/08 03:08:35;;;;;;;2.62;1.47;;;;;;;17.32;100.00;98576.11;1706622;82;28172;-84
2022/07/08 03:11:01;;;;;;;4.10;2.12;;;;;;;17.27;100.00;98583.66;1716691;82;28065;-84
2022/07/08 03:13:30;;;;;;;1.95;1.75;;;;;;;17.25;100.00;98586.92;1721044;82;28128;-84
2022/07/08 03:16:02;;;;;;;2.12;1.37;;;;;;;17.23;100.00;98592.87;1717187;82;28114;-84
2022/07/08 03:18:26;;;;;;;3.67;1.77;;;;;;;17.08;100.00;98584.55;1713311;82;28085;-84
2022/07/08 03:20:52;;;;;;;2.70;1.25;;;;;;;17.02;100.00;98591.24;1713697;81;28060;-84
2022/07/08 03:23:20;;;;;;;3.35;1.20;;;;;;;16.99;100.00;98588.90;1715072;82;42235;-84
2022/07/08 03:25:48;;;;;;;2.58;1.27;;;;;;;16.96;100.00;98592.33;1721671;81;28136;-84
2022/07/08 03:28:24;;;;;;;3.77;1.20;;;;;;;16.96;100.00;98597.13;1724002;81;28087;-84
2022/07/08 03:30:51;;;;;;;2.70;1.20;;;;;;;17.06;100.00;98599.26;1713376;81;28142;-84
2022/07/08 03:33:19;;;;;;;2.72;1.40;;;;;;;17.07;100.00;98594.28;1715170;81;28125;-84
2022/07/08 03:35:46;;;;;;;2.55;1.20;;;;;;;16.99;100.00;98591.54;1719061;81;28021;-84
2022/07/08 03:38:19;;;;;;;1.62;1.52;;;;;;;16.98;100.00;98598.28;1722634;82;28119;-84
2022/07/08 03:43:41;;;;;;;2.45;1.62;;;;;;;17.23;100.00;98599.48;1716252;81;28174;-84
2022/07/08 03:46:08;;;;;;;2.17;1.40;;;;;;;17.35;100.00;98616.33;1721466;81;28086;-84
2022/07/08 03:48:42;;;;;;;1.95;1.30;;;;;;;17.40;100.00;98619.37;1715100;81;28107;-84
2022/07/08 03:51:09;;;;;;;1.85;1.50;;;;;;;17.42;100.00;98620.06;1713209;82;28169;-86
2022/07/08 03:53:36;;;;;;;3.90;1.80;;;;;;;17.44;100.00;98629.19;1713041;81;28077;-84
2022/07/08 03:56:05;;;;;;;3.00;1.50;;;;;;;17.43;100.00;98632.81;1711083;82;28115;-84
2022/07/08 03:58:38;;;;;;;3.42;1.70;;;;;;;17.45;100.00;98637.48;1716912;82;28009;-84
2022/07/08 04:01:05;;;;;;;1.82;1.55;;;;;;;17.47;100.00;98640.80;1718903;82;28142;-84
2022/07/08 04:03:31;;;;;;;2.25;2.02;;;;;;;17.48;100.00;98636.69;1718149;81;28059;-84
2022/07/08 04:05:57;;;;;;;1.70;1.57;;;;;;;17.50;100.00;98637.88;1724596;82;28095;-85
2022/07/08 04:08:36;;;;;;;2.98;1.70;;;;;;;17.51;100.00;98640.35;1716911;82;28229;-84
2022/07/08 04:11:05;;;;;;;4.80;2.00;;;;;;;17.54;100.00;98644.53;1711133;82;28010;-84
2022/07/08 04:13:41;;;;;;;2.22;1.98;;;;;;;17.53;100.00;98642.38;1711670;82;28105;-84
2022/07/08 04:16:12;;;;;;;1.85;1.75;;;;;;;17.55;100.00;98649.69;1707247;82;28123;-84
2022/07/08 04:18:37;;;;;;;1.67;1.50;;;;;;;17.58;100.00;98650.70;1710188;82;28149;-84
2022/07/08 04:21:03;;;;;;;2.10;1.90;;;;;;;17.60;100.00;98647.95;1713033;81;28081;-84
2022/07/08 04:23:30;;;;;;;3.02;2.10;;;;;;;17.61;100.00;98654.09;1707109;82;28057;-84
2022/07/08 04:26:03;;;;;;;5.03;2.00;;;;;;;17.61;100.00;98656.73;1683951;82;28071;-84
2022/07/08 04:28:29;;;;;;;2.72;2.05;;;;;;;17.63;100.00;98656.92;1709350;82;28145;-84
2022/07/08 04:30:56;;;;;;;3.70;1.87;;;;;;;17.64;100.00;98657.27;1716945;82;28032;-86
2022/07/08 04:33:24;;;;;;;2.33;2.12;;;;;;;17.64;100.00;98660.40;1712128;82;28073;-85
2022/07/08 04:35:50;;;;;;;2.25;1.90;;;;;;;17.64;100.00;98658.59;1705703;82;28089;-84
2022/07/08 04:38:16;;;;;;;3.17;2.10;;;;;;;17.67;100.00;98658.80;1707643;82;28052;-84
2022/07/08 04:40:44;;;;;;;3.75;2.37;;;;;;;17.68;100.00;98659.95;1712418;82;28155;-84
2022/07/08 04:43:12;;;;;;;2.67;1.92;;;;;;;17.70;100.00;98663.30;1709366;82;28153;-87
2022/07/08 04:45:39;;;;;;;3.25;2.30;;;;;;;17.72;100.00;98660.52;1712843;82;28172;-85
2022/07/08 04:48:12;;;;;;;6.67;2.52;;;;;;;17.79;100.00;98654.95;1716429;82;28041;-85
2022/07/08 04:50:38;;;;;;;2.40;2.20;;;;;;;17.84;100.00;98653.53;1707827;82;28107;-85
2022/07/08 04:53:04;;;;;;;2.30;2.10;;;;;;;17.91;100.00;98656.44;1706499;82;28067;-85
2022/07/08 04:55:31;;;;;;;2.42;2.05;;;;;;;18.00;100.00;98650.77;1707776;82;28091;-85
2022/07/08 04:58:00;;;;;;;2.95;2.30;;;;;;;18.09;100.00;98652.02;1715147;82;28120;-85
2022/07/08 05:00:27;;;;;;;3.67;2.83;;;;;;;18.13;100.00;98644.11;1712080;82;28114;-85
2022/07/08 05:02:53;;;;;;;2.30;2.08;;;;;;;18.19;100.00;98645.33;1705435;82;28085;-85
2022/07/08 05:05:20;;;;;;;2.90;2.60;;;;;;;18.25;100.00;98642.91;1713046;82;28072;-85
2022/07/08 05:07:49;;;;;;;4.15;2.33;;;;;;;18.24;100.00;98647.03;1712461;82;28137;-85
2022/07/08 05:10:16;;;;;;;2.77;2.50;;;;;;;18.26;100.00;98646.41;1714440;82;28079;-85
2022/07/08 05:12:55;;;;;;;4.03;2.60;;;;;;;18.31;100.00;98655.56;1718538;82;28067;-86
2022/07/08 05:15:23;;;;;;;4.45;2.40;;;;;;;18.35;100.00;98648.97;1721244;82;28055;-86
2022/07/08 05:17:52;;;;;;;3.55;2.52;;;;;;;18.37;100.00;98654.13;1719284;81;28081;-86
2022/07/08 05:20:27;;;;;;;4.25;2.58;;;;;;;18.36;100.00;98661.73;1721619;82;28078;-86
2022/07/08 05:22:53;;;;;;;3.20;2.37;;;;;;;18.38;100.00;98663.75;1719342;81;28010;-85
2022/07/08 05:25:20;;;;;;;2.45;2.25;;;;;;;18.48;100.00;98672.46;1715304;82;28489;-85
2022/07/08 05:27:48;;;;;;;3.20;2.85;;;;;;;18.58;100.00;98669.77;1716331;82;28072;-85
2022/07/08 05:30:15;;;;;;;5.58;3.45;;;;;;;18.67;100.00;98672.33;1720054;82;28095;-85
2022/07/08 05:32:41;;;;;;;4.97;3.08;;;;;;;18.68;100.00;98676.65;1717077;82;28193;-85
2022/07/08 05:35:12;;;;;;;4.42;2.90;;;;;;;18.70;100.00;98677.83;1713505;81;28157;-85
2022/07/08 05:37:38;;;;;;;4.62;2.87;;;;;;;18.76;100.00;98679.88;1717259;81;28068;-86
2022/07/08 05:40:11;;;;;;;6.20;3.00;;;;;;;18.84;100.00;98675.95;1717869;81;28058;-86
2022/07/08 05:42:43;;;;;;;6.37;3.58;;;;;;;18.95;100.00;98681.02;1686989;84;28473;-85
2022/07/08 05:45:10;;;;;;;5.28;3.70;;;;;;;19.05;100.00;98683.57;1674241;84;28070;-85
2022/07/08 05:47:39;;;;;;;3.42;3.08;;;;;;;19.02;100.00;98686.55;1686121;83;28094;-85
2022/07/08 05:50:07;;;;;;;5.50;3.92;;;;;;;18.96;100.00;98688.48;1690733;83;28103;-85
2022/07/08 05:52:33;;;;;;;4.60;3.80;;;;;;;19.05;100.00;98690.20;1700026;83;28035;-85
2022/07/08 05:54:59;;;;;;;5.33;3.80;;;;;;;19.08;100.00;98688.09;1689362;84;28216;-85
2022/07/08 05:57:28;;;;;;;3.62;3.25;;;;;;;19.05;100.00;98686.22;1673709;84;28080;-85
2022/07/08 05:59:54;;;;;;;5.78;3.70;;;;;;;19.09;100.00;98700.87;1692132;83;28028;-85
2022/07/08 06:02:20;;;;;;;5.25;3.27;;;;;;;19.15;100.00;98700.22;1686327;83;28106;-85
2022/07/08 06:04:46;;;;;;;5.62;3.55;;;;;;;19.20;100.00;98704.60;1672882;84;28224;-85
2022/07/08 06:07:12;;;;;;;6.12;3.37;;;;;;;19.27;100.00;98710.94;1683760;83;28100;-85
2022/07/08 06:09:39;;;;;;;4.33;3.50;;;;;;;19.33;100.00;98714.30;1690697;82;28154;-85
2022/07/08 06:12:11;;;;;;;4.47;3.50;;;;;;;19.45;100.00;98718.89;1689789;82;28079;-85
2022/07/08 06:14:37;;;;;;;6.22;3.87;;;;;;;19.51;100.00;98712.47;1698571;83;28129;-85
2022/07/08 06:17:04;;;;;;;4.37;3.75;;;;;;;19.55;100.00;98711.16;1696465;83;28038;-86
2022/07/08 06:19:30;;;;;;;6.08;3.98;;;;;;;19.65;100.00;98720.33;1691534;83;28074;-85
2022/07/08 06:22:06;;;;;;;4.72;4.00;;;;;;;19.56;100.00;98714.65;1692874;83;28107;-85
2022/07/08 06:24:32;;;;;;;5.03;3.40;;;;;;;19.48;100.00;98712.77;1694485;83;28161;-85
2022/07/08 06:27:12;;;;;;;5.00;3.65;;;;;;;19.41;100.00;98723.66;1696156;83;28070;-85
2022/07/08 06:29:39;;;;;;;6.37;4.22;;;;;;;19.36;100.00;98727.28;1664052;83;28087;-85
2022/07/08 06:32:09;;;;;;;6.53;4.05;;;;;;;19.32;100.00;98725.90;1692225;83;28028;-85
2022/07/08 06:34:35;;;;;;;4.62;3.60;;;;;;;19.25;100.00;98720.89;1685160;83;28154;-85
2022/07/08 06:37:02;;;;;;;6.53;4.12;;;;;;;19.33;100.00;98726.73;1674507;84;43059;-86
2022/07/08 06:39:28;;;;;;;4.20;3.60;;;;;;;19.35;100.00;98729.59;1697013;83;28075;-86
2022/07/08 06:42:00;;;;;;;4.05;3.58;;;;;;;19.42;100.00;98732.45;1689796;83;20248;-85
2022/07/08 06:44:29;;;;;;;;;;;;;;;19.44;100.00;98732.62;1672408;85;28155;-86
2022/07/08 06:47:01;;;;;;;4.50;4.10;;;;;;;19.55;100.00;98723.11;1666563;84;28142;-85
2022/07/08 06:49:24;;;;;;;;;;;;;;;19.75;100.00;98725.53;1692484;83;28091;-86
2022/07/08 06:51:57;;;;;;;7.33;4.50;;;;;;;19.86;100.00;98726.09;1691824;83;24452;-86
2022/07/08 06:54:37;;;;;;;;;;;;;;;19.97;100.00;98725.81;1675194;84;28089;-86
2022/07/08 06:57:04;;;;;;;;;;;;;;;20.00;100.00;98726.84;1679813;84;24744;-86
2022/07/08 06:59:36;;;;;;;;;;;;;;;19.96;100.00;98724.66;1679913;84;22212;-85
2022/07/08 07:02:02;;;;;;;;;;;;;;;19.99;100.00;98728.31;1660316;84;26060;-86
2022/07/08 07:04:28;;;;;;;;;;;;;;;19.95;100.00;98726.48;1693450;83;24435;-86
2022/07/08 07:06:55;;;;;;;;;;;;;;;19.91;100.00;98728.30;1694433;83;20902;-86
2022/07/08 07:09:20;;;;;;;;;;;;;;;19.93;100.00;98732.94;1691496;83;24812;-85
2022/07/08 07:11:52;;;;;;;;;;;;;;;19.99;100.00;98730.97;1690618;83;20228;-86
2022/07/08 07:14:18;;;;;;;;;;;;;;;20.06;100.00;98733.34;1683654;84;26966;-86
2022/07/08 07:16:47;;;;;;;;;;;;;;;20.06;100.00;98725.37;1712915;82;25225;-85
2022/07/08 07:19:13;;;;;;;;;;;;;;;20.14;100.00;98729.86;1711956;82;20500;-85
2022/07/08 07:21:42;;;;;;;;;;;;;;;20.26;100.00;98732.08;1709137;82;20462;-85
2022/07/08 07:24:08;;;;;;;;;;;;;;;20.31;100.00;98733.79;1707876;82;22816;-85
2022/07/08 07:26:34;;;;;;;;;;;;;;;20.28;100.00;98735.42;1707311;82;21176;-86
2022/07/08 07:29:00;;;;;;;;;;;;;;;20.33;100.00;98733.64;1707357;82;20245;-84
2022/07/08 07:31:26;;;;;;;;;;;;;;;20.37;100.00;98734.97;1707851;82;20442;-85
2022/07/08 07:33:52;;;;;;;;;;;;;;;20.23;100.00;98731.09;1707564;82;20251;-85
2022/07/08 07:36:18;;;;;;;;;;;;;;;20.01;100.00;98736.97;1708498;82;21972;-85
2022/07/08 07:38:46;;;;;;;;;;;;;;;19.91;100.00;98740.25;1701572;82;20975;-85
2022/07/08 07:41:15;;;;;;;6.00;5.33;;;;;;;20.09;100.00;98740.98;1707138;82;24769;-85
2022/07/08 07:43:44;;;;;;;6.30;5.70;;;;;;;20.07;100.00;98740.33;1699111;83;28075;-84
2022/07/08 07:46:17;;;;;;;8.23;5.60;;;;;;;19.98;100.00;98743.91;1706761;83;28059;-84
2022/07/08 07:48:44;;;;;;;5.45;4.95;;;;;;;19.96;100.00;98748.58;1699988;83;28042;-84
2022/07/08 07:51:10;;;;;;;7.15;5.05;;;;;;;19.96;100.00;98749.41;1701207;83;28167;-84
2022/07/08 07:53:38;;;;;;;6.12;5.28;;;;;;;20.09;100.00;98750.28;1701535;83;28153;-84
2022/07/08 07:56:06;;;;;;;5.25;4.75;;;;;;;20.01;100.00;98753.75;1702773;82;28190;-84
2022/07/08 07:58:32;;;;;;;5.47;4.55;;;;;;;19.82;100.00;98747.81;1702177;83;28062;-84
2022/07/08 08:01:05;;;;;;;8.08;5.37;;;;;;;19.73;100.00;98746.12;1701035;83;28081;-84
2022/07/08 08:03:33;;;;;;;6.45;4.65;;;;;;;19.58;100.00;98744.02;1697601;83;28067;-84
2022/07/08 08:06:00;;;;;;;5.67;4.87;;;;;;;19.56;100.00;98746.02;1700044;83;28075;-84
2022/07/08 08:08:31;;;;;;;4.50;4.10;;;;;;;19.60;100.00;98750.02;1695548;83;28117;-84
2022/07/08 08:10:55;;;;;;;4.25;3.10;;;;;;;19.74;100.00;98746.46;1696934;83;28064;-84
2022/07/08 08:13:22;;;;;;;5.58;4.17;;;;;;;19.92;100.00;98742.73;1703611;82;28103;-84
2022/07/08 08:15:50;;;;;;;4.60;4.20;;;;;;;20.05;100.00;98744.95;1713400;82;28127;-84
2022/07/08 08:18:16;;;;;;;4.55;4.15;;;;;;;20.14;100.00;98751.13;1710588;82;28092;-84
2022/07/08 08:20:45;;;;;;;5.47;4.17;;;;;;;20.32;100.00;98743.93;1688578;82;28142;-84
2022/07/08 08:23:12;;;;;;;5.05;4.55;;;;;;;20.55;100.00;98739.69;1718455;81;28116;-85
2022/07/08 08:25:38;;;;;;;4.80;4.25;;;;;;;20.68;100.00;98749.34;1716497;82;28101;-84
2022/07/08 08:28:05;;;;;;;5.40;4.90;;;;;;;20.79;100.00;98741.54;1713424;82;27974;-84
2022/07/08 08:30:31;;;;;;;6.33;5.20;;;;;;;20.86;100.00;98739.89;1723464;82;28099;-84
2022/07/08 08:32:59;;;;;;;6.00;4.80;;;;;;;20.81;100.00;98740.39;1716441;82;28136;-84
2022/07/08 08:35:27;;;;;;;4.80;3.65;;;;;;;20.74;100.00;98741.20;1708696;82;28169;-84
2022/07/08 08:37:53;;;;;;;4.97;4.40;;;;;;;20.87;100.00;98746.39;1709574;82;28062;-84
2022/07/08 08:40:23;;;;;;;4.10;3.22;;;;;;;21.04;100.00;98736.59;1720754;81;28085;-84
2022/07/08 08:42:49;;;;;;;4.00;3.60;;;;;;;21.24;100.00;98748.59;1717327;82;28090;-84
2022/07/08 08:45:17;;;;;;;4.62;3.10;;;;;;;21.38;100.00;98744.94;1713756;82;28050;-83
2022/07/08 08:47:47;;;;;;;6.62;3.83;;;;;;;21.60;100.00;98747.72;1714777;82;28035;-84
2022/07/08 08:53:06;;;;;;;3.92;3.22;;;;;;;21.93;100.00;98745.00;1711625;82;28092;-84
2022/07/08 08:55:32;;;;;;;4.53;3.92;;;;;;;22.06;100.00;98746.14;1722898;81;28089;-84
2022/07/08 08:58:01;;;;;;;6.28;4.25;;;;;;;22.14;100.00;98750.63;1711024;81;28119;-84
2022/07/08 09:00:28;;;;;;;4.78;4.37;;;;;;;22.13;100.00;98752.12;1724813;82;28163;-84
2022/07/08 09:02:56;;;;;;;5.20;4.15;;;;;;;22.28;100.00;98753.88;1719867;82;28098;-84
2022/07/08 09:05:26;;;;;;;4.15;3.80;;;;;;;22.33;100.00;98754.69;1720455;81;28029;-84
2022/07/08 09:07:54;;;;;;;3.58;3.27;;;;;;;22.33;100.00;98750.69;1712372;81;38272;-84
2022/07/08 09:10:26;;;;;;;5.72;3.75;;;;;;;22.33;100.00;98758.69;1718633;81;28133;-84
2022/07/08 09:13:15;;;;;;;3.98;3.58;;;;;;;22.34;100.00;98760.36;1712359;82;28021;-84
2022/07/08 09:15:44;;;;;;;4.05;3.40;;;;;;;22.40;100.00;98756.50;1687592;83;28109;-84
2022/07/08 09:18:14;;;;;;;5.12;3.70;;;;;;;22.42;100.00;98755.80;1689110;83;28097;-84
2022/07/08 09:20:46;;;;;;;4.80;3.42;;;;;;;22.44;100.00;98752.97;1695038;83;28075;-84
2022/07/08 09:23:34;;;;;;;3.62;3.05;;;;;;;22.51;100.00;98748.61;1718877;82;28085;-84
2022/07/08 09:26:04;;;;;;;5.03;3.00;;;;;;;22.47;100.00;98753.98;1715880;81;28078;-84
2022/07/08 09:28:35;;;;;;;3.17;2.70;;;;;;;22.43;100.00;98752.64;1718426;82;28087;-84
2022/07/08 09:31:06;;;;;;;3.30;2.47;;;;;;;22.40;100.00;98755.67;1716734;81;28079;-84
2022/07/08 09:33:33;;;;;;;4.22;2.80;;;;;;;22.35;100.00;98760.20;1715162;81;27990;-84
2022/07/08 09:36:08;;;;;;;3.52;2.70;;;;;;;22.32;100.00;98755.69;1717980;81;28567;-84
2022/07/08 09:38:37;;;;;;;3.90;2.80;;;;;;;22.28;100.00;98758.38;1713195;82;28195;-84
2022/07/08 09:41:20;;;;;;;3.98;2.45;;;;;;;22.33;100.00;98758.69;1714765;82;27998;-84
2022/07/08 09:43:49;;;;;;;3.05;2.22;;;;;;;22.38;100.00;98755.83;1711645;81;28101;-84
2022/07/08 09:46:16;;;;;;;2.75;2.35;;;;;;;22.41;100.00;98758.17;1710071;81;28110;-84
2022/07/08 09:48:43;;;;;;;4.87;2.40;;;;;;;22.44;100.00;98756.47;1714949;81;28011;-84
2022/07/08 09:51:10;;;;;;;2.70;2.20;;;;;;;22.49;100.00;98759.95;1715477;82;28092;-84
2022/07/08 09:53:38;;;;;;;3.27;2.40;;;;;;;22.53;100.00;98762.09;1718478;82;28036;-84
2022/07/08 09:56:13;;;;;;;2.42;1.95;;;;;;;22.61;100.00;98758.55;1719477;81;28159;-83
2022/07/08 09:58:46;;;;;;;3.02;2.40;;;;;;;22.62;100.00;98756.72;1713080;81;28086;-84
2022/07/08 10:01:13;;;;;;;2.92;2.40;;;;;;;22.53;100.00;98765.25;1717143;82;28130;-84
2022/07/08 10:03:41;;;;;;;3.15;2.33;;;;;;;22.39;100.00;98770.00;1712686;81;28111;-84
2022/07/08 10:06:10;;;;;;;5.35;3.40;;;;;;;22.29;100.00;98767.55;1713090;81;28096;-84
2022/07/08 10:08:39;;;;;;;3.92;2.92;;;;;;;22.20;100.00;98767.27;1717273;82;28020;-84
2022/07/08 10:11:07;;;;;;;2.87;2.62;;;;;;;22.17;100.00;98766.27;1714797;82;28110;-84
2022/07/08 10:13:35;;;;;;;2.90;2.70;;;;;;;22.20;100.00;98769.93;1718829;82;28081;-84
2022/07/08 10:16:04;;;;;;;3.40;3.08;;;;;;;22.20;100.00;98770.43;1680561;84;28085;-84
2022/07/08 10:18:43;;;;;;;4.58;3.72;;;;;;;22.28;100.00;98766.38;1718610;82;28063;-85
2022/07/08 10:21:20;;;;;;;4.58;3.52;;;;;;;22.37;100.00;98766.66;1717475;82;28089;-84
2022/07/08 10:23:50;;;;;;;3.72;3.42;;;;;;;22.36;100.00;98767.70;1721687;82;28077;-84
2022/07/08 10:26:20;;;;;;;3.47;3.17;;;;;;;22.25;100.00;98776.08;1676658;83;28115;-84
2022/07/08 10:28:49;;;;;;;3.08;2.77;;;;;;;22.18;100.00;98786.59;1725315;81;28189;-84
2022/07/08 10:31:24;;;;;;;3.17;2.87;;;;;;;22.01;100.00;98786.30;1670959;84;28005;-84
2022/07/08 10:33:53;;;;;;;3.65;3.22;;;;;;;21.91;100.00;98786.47;1719132;82;28063;-84
2022/07/08 10:36:21;;;;;;;2.85;2.50;;;;;;;21.88;100.00;98795.29;1675539;83;28152;-84
2022/07/08 10:38:48;;;;;;;2.92;2.62;;;;;;;21.78;100.00;98798.64;1657258;84;28106;-84
2022/07/08 10:41:20;;;;;;;3.20;2.90;;;;;;;21.69;100.00;98805.33;1720873;82;28237;-84
2022/07/08 10:43:54;;;;;;;3.77;3.17;;;;;;;21.65;100.00;98796.02;1716991;81;28052;-84
2022/07/08 10:46:22;;;;;;;2.77;2.52;;;;;;;21.56;100.00;98806.33;1722710;82;28119;-84
2022/07/08 10:48:50;;;;;;;2.47;2.27;;;;;;;21.46;100.00;98800.84;1679247;83;28166;-84
2022/07/08 10:51:26;;;;;;;2.80;2.50;;;;;;;21.40;100.00;98802.34;1720199;81;28134;-84
2022/07/08 10:54:01;;;;;;;2.10;1.92;;;;;;;21.21;100.00;98811.50;1673061;84;28104;-84
2022/07/08 10:56:56;;;;;;;4.03;2.10;;;;;;;21.05;100.00;98809.28;1719256;82;28126;-83
2022/07/08 10:59:33;;;;;;;2.05;1.70;;;;;;;20.93;100.00;98811.92;1677460;84;28120;-84
2022/07/08 11:02:07;;;;;;;1.90;1.80;;;;;;;20.84;100.00;98817.70;1678119;83;28068;-84
2022/07/08 11:04:40;;;;;;;1.98;1.87;;;;;;;20.78;100.00;98818.38;1674885;84;28096;-84
2022/07/08 11:07:23;;;;;;;2.02;1.80;;;;;;;20.76;100.00;98824.34;1721592;81;28153;-84
2022/07/08 11:10:11;;;;;;;1.90;1.77;;;;;;;20.72;100.00;98825.17;1724414;81;28083;-84
2022/07/08 11:12:43;;;;;;;2.20;2.00;;;;;;;20.79;100.00;98814.70;1635804;85;28072;-84
2022/07/08 11:15:13;;;;;;;2.90;2.25;;;;;;;20.91;100.00;98824.54;1646525;85;28162;-84
2022/07/08 11:17:41;;;;;;;2.50;2.30;;;;;;;20.97;100.00;98825.22;1679350;83;28179;-84
2022/07/08 11:20:11;;;;;;;3.22;2.50;;;;;;;20.90;100.00;98819.71;1673109;83;28184;-84
2022/07/08 11:22:40;;;;;;;2.22;1.95;;;;;;;20.72;100.00;98815.87;1682979;83;28163;-84
2022/07/08 11:25:14;;;;;;;2.55;2.35;;;;;;;20.65;100.00;98823.31;1685152;83;28074;-84
2022/07/08 11:27:42;;;;;;;5.65;3.02;;;;;;;20.63;100.00;98818.64;1674350;83;27991;-84
2022/07/08 11:30:17;;;;;;;4.22;2.60;;;;;;;20.60;100.00;98820.30;1679042;83;28133;-84
2022/07/08 11:32:48;;;;;;;2.72;2.20;;;;;;;20.64;100.00;98826.95;1680605;83;28115;-84
2022/07/08 11:35:19;;;;;;;2.47;2.10;;;;;;;20.72;100.00;98823.02;1676628;83;28101;-84
2022/07/08 11:37:45;;;;;;;2.22;2.02;;;;;;;20.82;100.00;98815.72;1681761;83;28185;-84
2022/07/08 11:40:14;;;;;;;2.47;2.17;;;;;;;20.96;100.00;98814.23;1675467;83;28128;-85
2022/07/08 11:42:41;;;;;;;2.20;2.02;;;;;;;21.11;100.00;98809.97;1683935;83;28018;-85
2022/07/08 11:45:12;;;;;;;2.85;1.87;;;;;;;21.26;100.00;98811.84;1679444;83;28149;-84